Time;durP1;ratioP1;P1;durP2;ratioP2;P2;SDS_P1;SDS_P2;PMS_P1;PMS_P2;Temp;Humidity;BMP_temperature;BMP_pressure;BME280_temperature;BME280_humidity;BME280_pressure;Samples;Min_cycle;Max_cycle;Signal;HPM_P1;HPM_P2
2021/06/10 05:31:08;;;;;;;8.93;7.00;;;;;;;15.13;81.32;97881.36;1871658;76;22710;-63
2021/06/10 05:33:35;;;;;;;8.28;5.70;;;;;;;15.23;80.77;97885.08;1827825;77;20872;-67
2021/06/10 05:36:04;;;;;;;6.50;5.28;;;;;;;15.37;80.67;97881.06;1827875;78;21104;-64
2021/06/10 05:38:32;;;;;;;5.50;4.97;;;;;;;15.51;80.24;97874.92;1827801;78;21451;-63
2021/06/10 05:40:59;;;;;;;5.83;4.47;;;;;;;15.64;80.02;97872.54;1827867;78;20955;-64
2021/06/10 05:43:27;;;;;;;7.42;4.47;;;;;;;15.81;79.52;97869.51;1827832;78;20927;-63
2021/06/10 05:45:53;;;;;;;6.70;4.10;;;;;;;15.96;78.87;97876.50;1828187;78;21367;-62
2021/06/10 05:48:20;;;;;;;5.80;5.15;;;;;;;16.14;78.23;97874.46;1827754;78;22278;-65
2021/06/10 05:50:47;;;;;;;4.87;4.47;;;;;;;16.30;77.90;97868.14;1827667;78;20919;-63
2021/06/10 05:53:15;;;;;;;6.53;4.20;;;;;;;16.49;77.05;97875.02;1827940;78;20837;-64
2021/06/10 05:55:43;;;;;;;7.72;4.58;;;;;;;16.62;76.67;97880.17;1827991;78;20872;-63
2021/06/10 05:58:10;;;;;;;6.85;4.37;;;;;;;16.73;76.00;97879.19;1827824;78;20880;-62
2021/06/10 06:00:37;;;;;;;4.85;4.35;;;;;;;16.82;75.44;97879.89;1827816;78;21108;-61
2021/06/10 06:03:06;;;;;;;6.30;4.42;;;;;;;16.86;74.56;97883.53;1827949;78;20833;-63
2021/06/10 06:05:35;;;;;;;4.83;4.33;;;;;;;16.91;74.31;97884.68;1826933;78;21323;-63
2021/06/10 06:08:03;;;;;;;5.37;4.70;;;;;;;16.97;74.52;97872.51;1827869;78;20904;-62
2021/06/10 06:10:30;;;;;;;6.25;4.60;;;;;;;17.04;74.17;97881.67;1827960;78;21368;-64
2021/06/10 06:12:59;;;;;;;5.37;4.50;;;;;;;17.09;73.63;97884.72;1827768;78;21113;-62
2021/06/10 06:15:26;;;;;;;6.00;5.08;;;;;;;17.11;73.74;97879.76;1827717;78;20927;-63
2021/06/10 06:17:53;;;;;;;7.67;5.08;;;;;;;17.16;73.98;97880.91;1828110;78;20911;-65
2021/06/10 06:20:21;;;;;;;7.37;4.58;;;;;;;17.18;73.98;97878.65;1827782;78;20919;-62
2021/06/10 06:22:48;;;;;;;5.75;4.62;;;;;;;17.19;73.53;97882.95;1828017;78;20896;-66
2021/06/10 06:25:17;;;;;;;7.50;4.90;;;;;;;17.16;73.53;97878.20;1827787;78;22211;-62
2021/06/10 06:27:44;;;;;;;5.75;4.85;;;;;;;17.14;73.30;97887.77;1826264;78;21568;-64
2021/06/10 06:30:12;;;;;;;7.05;4.97;;;;;;;17.08;73.34;97879.06;1782323;80;20935;-62
2021/06/10 06:32:39;;;;;;;5.40;4.80;;;;;;;17.02;73.27;97881.77;1776483;80;21034;-63
2021/06/10 06:35:07;;;;;;;5.40;4.83;;;;;;;16.95;73.39;97880.17;1776213;80;21113;-64
2021/06/10 06:37:34;;;;;;;5.95;5.28;;;;;;;16.94;73.44;97882.64;1777488;80;21870;-63
2021/06/10 06:40:01;;;;;;;8.35;5.47;;;;;;;16.94;73.52;97881.28;1776358;80;21098;-60
2021/06/10 06:42:28;;;;;;;6.35;4.75;;;;;;;16.98;73.82;97886.28;1775588;80;21046;-63
2021/06/10 06:44:55;;;;;;;5.85;5.20;;;;;;;17.01;73.67;97882.88;1775872;80;21066;-69
2021/06/10 06:47:21;;;;;;;8.53;5.22;;;;;;;17.08;73.75;97887.98;1775623;80;21084;-60
2021/06/10 06:49:49;;;;;;;6.67;4.97;;;;;;;17.17;73.54;97891.94;1775722;80;21311;-63
2021/06/10 06:52:16;;;;;;;6.55;4.87;;;;;;;17.25;72.83;97895.69;1775602;80;21101;-62
2021/06/10 06:54:43;;;;;;;5.95;4.53;;;;;;;17.30;72.74;97894.12;1777252;80;20872;-62
2021/06/10 06:57:10;;;;;;;9.30;4.95;;;;;;;17.38;72.27;97897.30;1777146;80;20908;-60
2021/06/10 06:59:39;;;;;;;5.75;5.17;;;;;;;17.45;71.97;97898.30;1777268;80;20959;-60
2021/06/10 07:02:06;;;;;;;5.50;4.90;;;;;;;17.46;71.82;97893.12;1777077;80;22305;-65
2021/06/10 07:04:33;;;;;;;5.08;4.40;;;;;;;17.46;71.87;97898.55;1776968;80;21440;-61
2021/06/10 07:06:59;;;;;;;6.65;4.60;;;;;;;17.47;71.73;97893.92;1790604;80;20922;-61
2021/06/10 07:09:27;;;;;;;5.33;4.22;;;;;;;17.49;71.95;97896.53;1788153;80;20967;-59
2021/06/10 07:11:54;;;;;;;5.08;4.28;;;;;;;17.54;71.56;97897.69;1775426;80;21328;-63
2021/06/10 07:14:20;;;;;;;7.08;4.83;;;;;;;17.60;71.70;97899.04;1775771;80;21124;-62
2021/06/10 07:16:48;;;;;;;10.25;5.30;;;;;;;17.67;71.46;97901.18;1775521;80;21054;-60
2021/06/10 07:19:16;;;;;;;5.53;4.30;;;;;;;17.69;71.00;97896.21;1775277;80;21514;-61
2021/06/10 07:21:49;;;;;;;5.65;4.78;;;;;;;17.68;71.13;97895.45;1774545;79;20959;-60
2021/06/10 07:24:16;;;;;;;7.65;5.58;;;;;;;17.70;71.37;97904.02;1775887;80;20955;-64
2021/06/10 07:26:44;;;;;;;8.53;5.78;;;;;;;17.80;71.46;97906.05;1775804;80;21240;-61
2021/06/10 07:29:12;;;;;;;8.75;5.25;;;;;;;17.90;71.46;97894.17;1777310;80;20991;-60
2021/06/10 07:31:39;;;;;;;6.42;5.12;;;;;;;18.04;71.62;97893.27;1777143;80;20958;-61
2021/06/10 07:34:06;;;;;;;9.68;4.47;;;;;;;18.19;71.36;97898.55;1777268;80;21438;-59
2021/06/10 07:36:34;;;;;;;5.45;4.33;;;;;;;18.35;71.15;97903.48;1772175;79;21312;-60
2021/06/10 07:39:05;;;;;;;4.30;3.75;;;;;;;18.46;70.01;97900.58;1759043;80;21125;-61
2021/06/10 07:41:32;;;;;;;6.70;3.95;;;;;;;18.54;69.16;97899.63;1773595;81;21583;-62
2021/06/10 07:43:59;;;;;;;5.50;4.20;;;;;;;18.61;68.84;97893.05;1774077;81;20922;-60
2021/06/10 07:46:26;;;;;;;4.85;3.85;;;;;;;18.66;68.71;97896.09;1770888;80;21063;-60
2021/06/10 07:48:53;;;;;;;7.83;4.30;;;;;;;18.71;68.42;97896.64;1756676;81;21513;-61
2021/06/10 07:51:20;;;;;;;6.00;3.90;;;;;;;18.73;68.26;97894.37;1743138;82;21125;-62
2021/06/10 07:53:49;;;;;;;4.53;3.72;;;;;;;18.79;68.21;97886.78;1743357;82;21027;-60
2021/06/10 07:56:37;;;;;;;6.00;3.77;;;;;;;18.87;68.27;97883.91;1743438;82;20893;-60
2021/06/10 07:59:03;;;;;;;5.47;3.77;;;;;;;18.96;67.56;97884.53;1847745;77;21355;-60
2021/06/10 08:01:30;;;;;;;4.47;3.30;;;;;;;19.05;67.20;97879.73;1847587;77;20963;-60
2021/06/10 08:03:57;;;;;;;6.20;3.40;;;;;;;19.12;66.94;97885.35;1847647;77;21062;-60
2021/06/10 08:06:24;;;;;;;3.77;3.10;;;;;;;19.22;66.55;97879.22;1847656;77;21343;-62
2021/06/10 08:08:51;;;;;;;3.42;3.10;;;;;;;19.29;66.21;97876.69;1848206;77;21510;-61
2021/06/10 08:11:18;;;;;;;4.28;3.40;;;;;;;19.35;65.81;97882.06;1847483;77;21426;-66
2021/06/10 08:13:46;;;;;;;3.98;3.27;;;;;;;19.40;65.23;97885.91;1836884;77;20981;-61
2021/06/10 08:16:13;;;;;;;4.37;3.25;;;;;;;19.44;65.60;97882.70;1831333;78;21725;-61
2021/06/10 08:18:41;;;;;;;5.97;2.98;;;;;;;19.52;65.41;97879.84;1831309;78;20928;-61
2021/06/10 08:21:08;;;;;;;7.08;3.17;;;;;;;19.63;65.19;97882.80;1831290;78;21337;-61
2021/06/10 08:23:34;;;;;;;5.80;3.33;;;;;;;19.77;64.84;97883.14;1831057;78;20929;-61
2021/06/10 08:26:03;;;;;;;3.55;3.15;;;;;;;19.91;64.91;97887.55;1831768;78;21468;-62
2021/06/10 08:28:30;;;;;;;7.85;2.90;;;;;;;20.09;64.72;97886.61;1831603;78;21880;-63
2021/06/10 08:30:57;;;;;;;6.08;3.35;;;;;;;20.24;64.25;97883.87;1830925;78;20953;-61
2021/06/10 08:33:24;;;;;;;3.50;3.00;;;;;;;20.38;63.71;97881.45;1831008;78;20838;-62
2021/06/10 08:35:54;;;;;;;4.80;3.22;;;;;;;20.53;62.44;97881.75;1830762;78;20937;-60
2021/06/10 08:38:21;;;;;;;3.08;2.52;;;;;;;20.68;62.56;97881.67;1831544;78;21468;-61
2021/06/10 08:40:48;;;;;;;6.83;3.30;;;;;;;20.86;60.77;97877.39;1830703;77;21348;-62
2021/06/10 08:43:15;;;;;;;5.40;2.77;;;;;;;21.00;60.21;97891.84;1828231;77;21023;-59
2021/06/10 08:45:44;;;;;;;5.10;2.80;;;;;;;21.04;59.43;97885.88;1847358;77;20896;-62
2021/06/10 08:48:13;;;;;;;4.87;2.60;;;;;;;21.01;57.37;97886.02;1847474;77;20917;-63
2021/06/10 08:50:42;;;;;;;5.05;2.80;;;;;;;20.94;57.90;97883.73;1847570;77;20935;-60
2021/06/10 08:53:11;;;;;;;3.30;2.52;;;;;;;20.99;58.54;97892.97;1847624;77;21095;-60
2021/06/10 08:55:37;;;;;;;4.53;2.75;;;;;;;21.13;58.51;97890.55;1847428;77;20864;-61
2021/06/10 08:58:04;;;;;;;8.93;2.75;;;;;;;21.27;57.79;97883.99;1847425;77;20887;-62
2021/06/10 09:00:32;;;;;;;5.28;2.60;;;;;;;21.36;56.94;97881.81;1846989;77;21415;-62
2021/06/10 09:03:00;;;;;;;6.05;2.75;;;;;;;21.42;57.11;97885.03;1847801;77;21014;-60
2021/06/10 09:05:29;;;;;;;4.55;2.58;;;;;;;21.53;56.50;97892.23;1840362;77;21543;-60
2021/06/10 09:08:02;;;;;;;4.42;2.70;;;;;;;21.62;56.31;97881.87;1830944;78;20968;-60
2021/06/10 09:10:31;;;;;;;2.42;2.22;;;;;;;21.79;56.73;97888.77;1831261;78;20905;-62
2021/06/10 09:13:06;;;;;;;2.47;2.22;;;;;;;21.96;56.42;97887.50;1831313;78;20942;-62
2021/06/10 09:15:35;;;;;;;6.78;3.05;;;;;;;22.10;53.71;97886.34;1830591;78;20955;-62
2021/06/10 09:18:02;;;;;;;4.78;2.62;;;;;;;22.21;54.38;97879.88;1826745;77;21662;-61
2021/06/10 09:20:46;;;;;;;3.87;2.42;;;;;;;22.34;54.06;97878.52;1812279;79;21014;-61
2021/06/10 09:23:24;;;;;;;6.85;2.50;;;;;;;22.42;52.22;97873.95;1828226;77;20928;-62
2021/06/10 09:26:03;;;;;;;4.47;2.65;;;;;;;22.41;53.32;97872.37;1821830;77;20908;-62
2021/06/10 09:28:35;;;;;;;3.17;2.45;;;;;;;22.49;52.95;97873.44;1812394;79;21002;-61
2021/06/10 09:31:02;;;;;;;7.80;2.50;;;;;;;22.58;53.09;97860.89;1813102;79;21748;-59
2021/06/10 09:33:43;;;;;;;4.47;2.40;;;;;;;22.67;51.23;97860.06;1813956;77;21089;-62
2021/06/10 09:36:16;;;;;;;6.10;2.40;;;;;;;22.66;52.82;97865.30;1840247;77;20878;-61
2021/06/10 09:39:04;;;;;;;6.12;2.35;;;;;;;22.82;52.68;97848.12;1847563;77;20967;-66
2021/06/10 09:41:31;;;;;;;2.70;2.50;;;;;;;22.89;52.91;97845.47;1816117;77;20896;-68
2021/06/10 09:43:58;;;;;;;3.40;2.00;;;;;;;22.97;51.37;97844.97;1813781;79;21874;-63
2021/06/10 09:46:25;;;;;;;3.37;2.47;;;;;;;23.05;51.17;97839.23;1814391;79;21364;-61
2021/06/10 09:49:06;;;;;;;4.58;2.60;;;;;;;23.12;49.14;97841.23;1814365;79;20954;-61
2021/06/10 09:51:33;;;;;;;5.97;2.25;;;;;;;23.11;50.72;97829.52;1816393;77;21491;-64
2021/06/10 09:54:00;;;;;;;5.85;2.27;;;;;;;23.23;50.68;97829.03;1796167;77;21030;-64
2021/06/10 09:56:29;;;;;;;3.10;2.40;;;;;;;23.33;49.02;97831.08;1823457;77;21101;-65
2021/06/10 09:59:03;;;;;;;3.25;2.50;;;;;;;23.39;49.95;97824.91;1812916;79;21011;-62
2021/06/10 10:01:26;;;;;;;2.62;2.10;;;;;;;23.48;49.87;97830.08;1828809;77;21096;-65
2021/06/10 10:03:53;;;;;;;2.52;2.10;;;;;;;23.54;49.55;97829.34;1845008;77;20912;-63
2021/06/10 10:06:30;;;;;;;3.62;2.47;;;;;;;23.63;49.65;97823.55;1845029;77;21139;-60
2021/06/10 10:09:01;;;;;;;3.77;2.60;;;;;;;23.71;48.55;97816.98;1844876;77;21098;-63
2021/06/10 10:11:32;;;;;;;2.80;2.22;;;;;;;23.71;49.36;97825.18;1845811;77;21073;-63
2021/06/10 10:14:00;;;;;;;3.33;2.02;;;;;;;23.66;49.19;97818.12;1845921;77;21059;-68
2021/06/10 10:16:31;;;;;;;3.10;2.27;;;;;;;23.63;49.40;97820.81;1845936;77;21101;-62
2021/06/10 10:18:59;;;;;;;2.47;2.27;;;;;;;23.65;49.29;97813.01;1847914;77;20880;-62
2021/06/10 10:21:29;;;;;;;4.47;2.47;;;;;;;23.68;49.32;97814.99;1847714;77;21105;-65
2021/06/10 10:24:02;;;;;;;5.62;2.50;;;;;;;23.74;49.13;97817.59;1848375;77;20919;-62
2021/06/10 10:26:30;;;;;;;2.70;2.25;;;;;;;23.81;48.06;97822.50;1848040;77;21455;-62
2021/06/10 10:29:01;;;;;;;3.75;2.27;;;;;;;23.88;48.32;97810.84;1847728;77;20872;-61
2021/06/10 10:31:29;;;;;;;2.52;2.20;;;;;;;23.95;49.11;97813.63;1847746;77;20869;-61
2021/06/10 10:33:56;;;;;;;3.10;2.05;;;;;;;23.99;47.48;97813.63;1848023;77;21827;-61
2021/06/10 10:36:31;;;;;;;6.05;2.40;;;;;;;24.01;47.42;97814.03;1847594;77;20828;-59
2021/06/10 10:39:09;;;;;;;5.77;2.47;;;;;;;24.10;48.18;97797.51;1848370;77;20849;-62
2021/06/10 10:41:51;;;;;;;2.50;2.30;;;;;;;24.11;47.52;97797.72;1848105;77;21418;-60
2021/06/10 10:44:27;;;;;;;3.33;2.27;;;;;;;24.12;47.80;97788.33;1847657;77;20872;-60
2021/06/10 10:47:07;;;;;;;3.55;2.40;;;;;;;24.03;46.69;97778.29;1847715;77;21113;-60
2021/06/10 10:49:46;;;;;;;5.00;2.30;;;;;;;23.88;47.74;97775.30;1847650;77;20848;-60
2021/06/10 10:52:25;;;;;;;5.40;2.25;;;;;;;23.76;48.25;97776.97;1848033;77;20911;-61
2021/06/10 10:54:52;;;;;;;2.67;2.12;;;;;;;23.80;48.45;97774.46;1847459;77;20987;-62
2021/06/10 10:57:38;;;;;;;4.55;2.37;;;;;;;23.96;48.86;97776.88;1848411;77;20885;-61
2021/06/10 11:00:09;;;;;;;3.83;2.35;;;;;;;24.10;48.55;97776.20;1847721;77;21052;-61
2021/06/10 11:02:40;;;;;;;4.08;2.58;;;;;;;24.17;47.84;97777.59;1847617;77;20891;-64
2021/06/10 11:05:11;;;;;;;2.22;2.02;;;;;;;24.22;47.21;97772.55;1847582;77;20892;-64
2021/06/10 11:07:42;;;;;;;4.58;2.20;;;;;;;24.25;47.83;97764.16;1846729;77;20911;-65
2021/06/10 11:10:17;;;;;;;3.70;2.00;;;;;;;24.36;46.58;97763.61;1847826;77;21427;-63
2021/06/10 11:12:53;;;;;;;5.78;2.08;;;;;;;24.43;46.21;97754.84;1847573;77;20930;-63
2021/06/10 11:15:26;;;;;;;4.33;1.93;;;;;;;24.36;46.34;97763.03;1848098;77;21501;-66
2021/06/10 11:17:59;;;;;;;;;;;;;;;24.12;46.56;97765.68;1838987;77;21001;-62
2021/06/10 11:20:41;;;;;;;3.52;1.98;;;;;;;23.85;46.79;97762.38;1847599;77;20080;-61
2021/06/10 11:23:28;;;;;;;2.87;2.40;;;;;;;23.71;47.42;97760.34;1847717;77;20857;-60
2021/06/10 11:25:57;;;;;;;4.47;1.90;;;;;;;23.88;47.74;97753.41;1847828;77;21430;-62
2021/06/10 11:28:29;;;;;;;3.83;2.20;;;;;;;24.26;46.89;97747.34;1847738;77;20868;-60
2021/06/10 11:31:20;;;;;;;2.58;2.20;;;;;;;24.69;45.74;97755.69;1847554;77;20911;-63
2021/06/10 11:33:51;;;;;;;6.80;2.10;;;;;;;24.92;43.97;97756.93;1848797;77;21556;-65
2021/06/10 11:36:20;;;;;;;2.33;2.00;;;;;;;25.01;43.66;97759.30;1848668;77;21013;-63
2021/06/10 11:38:50;;;;;;;2.87;2.10;;;;;;;24.93;44.19;97753.03;1849222;77;21082;-62
2021/06/10 11:41:21;;;;;;;5.17;2.30;;;;;;;24.77;44.06;97755.94;1850255;77;21386;-64
2021/06/10 11:43:56;;;;;;;3.10;2.30;;;;;;;24.54;45.97;97760.36;1849764;77;20861;-64
2021/06/10 11:46:38;;;;;;;2.77;2.50;;;;;;;24.26;46.28;97762.39;1847513;77;20928;-59
2021/06/10 11:49:05;;;;;;;6.83;2.35;;;;;;;23.92;45.92;97767.09;1847871;77;20915;-61
2021/06/10 11:51:35;;;;;;;7.20;2.08;;;;;;;23.62;46.77;97767.31;1847429;77;22049;-61
2021/06/10 11:54:14;;;;;;;5.20;2.60;;;;;;;23.47;46.81;97764.27;1846270;77;20975;-59
2021/06/10 11:56:45;;;;;;;4.70;2.27;;;;;;;23.33;47.53;97760.83;1845628;77;20896;-61
2021/06/10 11:59:24;;;;;;;4.97;2.40;;;;;;;23.25;47.80;97759.79;1842026;77;20918;-61
2021/06/10 12:02:07;;;;;;;4.22;2.42;;;;;;;23.24;47.57;97755.48;1824105;78;21332;-61
2021/06/10 12:04:35;;;;;;;3.65;2.20;;;;;;;23.19;47.52;97744.32;1826732;77;21729;-62
2021/06/10 12:07:13;;;;;;;8.70;2.65;;;;;;;23.13;48.67;97769.03;1819185;77;21039;-62
2021/06/10 12:09:53;;;;;;;13.15;2.60;;;;;;;22.96;49.30;97764.22;1797388;77;21044;-61
2021/06/10 12:12:43;;;;;;;18.35;2.47;;;;;;;22.55;53.45;97779.75;1792666;77;20989;-64
2021/06/10 12:15:27;;;;;;;6.40;2.62;;;;;;;21.94;54.72;97778.81;1791366;80;21029;-59
2021/06/10 12:18:02;;;;;;;5.30;2.35;;;;;;;21.32;57.60;97777.46;1789886;80;21061;-62
2021/06/10 12:20:32;;;;;;;3.25;2.40;;;;;;;20.93;59.80;97776.00;1806605;77;20969;-63
2021/06/10 12:23:00;;;;;;;5.53;2.47;;;;;;;20.58;61.71;97771.28;1809758;79;20878;-61
2021/06/10 12:25:30;;;;;;;3.90;2.92;;;;;;;20.31;61.92;97774.44;1809274;78;20997;-63
2021/06/10 12:27:58;;;;;;;5.47;2.80;;;;;;;20.14;62.67;97764.75;1808073;79;21054;-61
2021/06/10 12:30:37;;;;;;;6.10;2.85;;;;;;;20.08;63.53;97758.03;1808285;79;21098;-63
2021/06/10 12:33:20;;;;;;;5.25;2.72;;;;;;;20.13;64.01;97753.67;1808119;79;20918;-61
2021/06/10 12:35:49;;;;;;;6.67;3.10;;;;;;;20.20;63.10;97750.30;1808057;79;21069;-62
2021/06/10 12:38:18;;;;;;;3.75;2.83;;;;;;;20.29;63.82;97751.69;1808313;79;21096;-61
2021/06/10 12:40:47;;;;;;;4.08;2.87;;;;;;;20.32;63.74;97750.98;1809064;79;20969;-61
2021/06/10 12:43:20;;;;;;;5.83;3.10;;;;;;;20.36;63.99;97758.63;1809792;79;21204;-59
2021/06/10 12:45:47;;;;;;;4.95;3.17;;;;;;;20.31;63.78;97757.55;1810149;79;20910;-63
2021/06/10 12:48:28;;;;;;;9.18;3.52;;;;;;;20.26;65.00;97757.05;1809802;79;20859;-67
2021/06/10 12:51:31;;;;;;;4.30;2.75;;;;;;;20.22;66.79;97775.23;1810398;79;20994;-66
2021/06/10 12:54:13;;;;;;;7.35;2.70;;;;;;;20.01;65.76;97785.63;1809861;79;20923;-64
2021/06/10 12:56:51;;;;;;;7.65;2.58;;;;;;;19.71;65.74;97778.59;1809842;79;22233;-64
2021/06/10 12:59:37;;;;;;;7.10;2.40;;;;;;;19.45;66.06;97790.59;1809497;79;20866;-66
2021/06/10 13:02:19;;;;;;;7.83;2.33;;;;;;;19.26;65.64;97787.77;1807885;79;20918;-69
2021/06/10 13:04:51;;;;;;;7.83;2.62;;;;;;;19.06;65.00;97787.68;1809909;79;28431;-68
2021/06/10 13:07:40;;;;;;;13.68;2.72;;;;;;;18.88;66.19;97805.45;1809673;79;20882;-64
2021/06/10 13:10:14;;;;;;;5.33;2.30;;;;;;;18.79;67.28;97800.75;1809533;79;21125;-65
2021/06/10 13:12:47;;;;;;;7.03;2.62;;;;;;;18.68;68.36;97803.73;1809734;79;20972;-65
2021/06/10 13:15:22;;;;;;;4.08;2.08;;;;;;;18.59;68.83;97800.39;1809545;79;20953;-67
2021/06/10 13:18:11;;;;;;;5.75;2.22;;;;;;;18.52;68.88;97810.25;1810754;79;20918;-65
2021/06/10 13:20:59;;;;;;;8.18;2.45;;;;;;;18.50;69.44;97816.59;1809681;79;20984;-64
2021/06/10 13:23:34;;;;;;;4.95;1.98;;;;;;;18.52;69.67;97817.83;1809844;79;21097;-64
2021/06/10 13:26:07;;;;;;;2.85;2.20;;;;;;;18.61;69.53;97821.17;1809747;79;20906;-63
2021/06/10 13:28:38;;;;;;;6.10;2.30;;;;;;;18.68;69.35;97834.93;1805557;79;20878;-61
2021/06/10 13:31:41;;;;;;;8.08;2.37;;;;;;;18.84;69.60;97833.03;1809479;79;20882;-66
2021/06/10 13:34:18;;;;;;;6.00;2.12;;;;;;;19.22;70.07;97830.34;1809651;79;20922;-63
2021/06/10 13:39:21;;;;;;;6.57;2.23;;;;;;;20.47;67.16;97815.95;1809606;79;20969;-62
2021/06/10 13:41:49;;;;;;;4.55;2.33;;;;;;;21.05;65.92;97819.42;1809387;79;21351;-63
2021/06/10 13:44:16;;;;;;;3.52;2.12;;;;;;;21.70;64.90;97820.09;1809411;79;20925;-61
2021/06/10 13:46:43;;;;;;;3.58;1.90;;;;;;;22.33;60.70;97818.84;1809542;79;20925;-65
2021/06/10 13:49:09;;;;;;;3.27;1.90;;;;;;;22.93;58.82;97809.45;1809781;79;22171;-67
2021/06/10 13:51:36;;;;;;;4.37;2.05;;;;;;;23.41;54.05;97811.66;1809500;79;20902;-67
2021/06/10 13:54:04;;;;;;;2.45;1.80;;;;;;;23.74;53.47;97810.75;1810243;79;20961;-66
2021/06/10 13:56:31;;;;;;;2.55;1.62;;;;;;;24.05;52.69;97812.88;1809555;79;21503;-67
2021/06/10 13:58:58;;;;;;;2.33;1.60;;;;;;;24.23;51.17;97808.34;1809114;79;20879;-64
2021/06/10 14:01:25;;;;;;;2.98;1.90;;;;;;;24.10;50.26;97807.08;1807576;79;21068;-62
2021/06/10 14:03:53;;;;;;;2.83;1.90;;;;;;;23.68;50.20;97807.58;1807617;79;20969;-67
2021/06/10 14:06:19;;;;;;;3.20;1.90;;;;;;;23.24;51.40;97811.48;1807680;79;21367;-65
2021/06/10 14:09:06;;;;;;;2.20;2.00;;;;;;;22.75;53.52;97815.28;1807662;79;20877;-64
2021/06/10 14:11:33;;;;;;;5.55;2.40;;;;;;;22.43;55.09;97812.75;1798921;79;20927;-64
2021/06/10 14:14:00;;;;;;;3.45;2.25;;;;;;;22.17;56.32;97820.98;1798895;79;21040;-66
2021/06/10 14:16:27;;;;;;;3.55;2.25;;;;;;;21.99;57.03;97819.39;1799061;79;20828;-64
2021/06/10 14:18:54;;;;;;;2.40;2.20;;;;;;;21.86;58.08;97819.98;1798921;79;20825;-62
2021/06/10 14:21:26;;;;;;;5.92;2.30;;;;;;;21.71;58.50;97823.83;1798914;79;20896;-65
2021/06/10 14:23:54;;;;;;;3.05;2.22;;;;;;;21.59;58.86;97824.03;1798960;79;20912;-63
2021/06/10 14:26:25;;;;;;;3.67;2.10;;;;;;;21.48;59.48;97823.05;1799081;79;21081;-66
2021/06/10 14:29:00;;;;;;;2.12;1.92;;;;;;;21.36;58.44;97823.24;1798869;79;20922;-65
2021/06/10 14:34:06;;;;;;;;;;;;;;;21.19;60.24;97811.50;1801803;79;21375;-64
2021/06/10 14:36:36;;;;;;;4.55;2.67;;;;;;;21.13;60.21;97808.28;1798982;79;20102;-66
2021/06/10 14:39:04;;;;;;;2.75;2.20;;;;;;;21.07;59.79;97807.59;1798681;79;21100;-61
2021/06/10 14:41:31;;;;;;;3.20;2.40;;;;;;;21.02;60.37;97803.77;1799005;79;21455;-63
2021/06/10 14:43:58;;;;;;;3.42;2.40;;;;;;;21.00;60.69;97807.44;1798904;79;20911;-64
2021/06/10 14:46:24;;;;;;;4.47;2.50;;;;;;;20.97;61.12;97802.70;1798950;79;21419;-68
2021/06/10 14:48:52;;;;;;;4.03;2.60;;;;;;;20.94;60.56;97797.97;1798881;79;20975;-61
2021/06/10 14:51:18;;;;;;;5.10;2.42;;;;;;;20.88;60.80;97792.06;1799162;79;21254;-67
2021/06/10 14:53:45;;;;;;;2.92;2.33;;;;;;;20.88;60.93;97789.34;1798828;79;20900;-66
2021/06/10 14:56:12;;;;;;;4.47;2.75;;;;;;;20.92;61.30;97790.75;1798910;79;20979;-63
2021/06/10 14:58:40;;;;;;;3.10;2.50;;;;;;;21.09;61.22;97788.95;1798864;79;20936;-62
2021/06/10 15:01:07;;;;;;;2.98;2.40;;;;;;;21.39;60.87;97791.19;1798913;79;20908;-64
2021/06/10 15:03:35;;;;;;;3.35;2.47;;;;;;;21.87;59.65;97787.46;1799066;79;21805;-64
2021/06/10 15:06:02;;;;;;;2.62;2.33;;;;;;;22.44;58.65;97785.67;1798922;79;20923;-65
2021/06/10 15:08:28;;;;;;;3.50;2.10;;;;;;;23.11;57.98;97784.45;1798872;79;20994;-61
2021/06/10 15:10:55;;;;;;;3.17;2.15;;;;;;;23.66;56.12;97786.67;1784770;79;20920;-61
2021/06/10 15:13:23;;;;;;;4.95;2.27;;;;;;;24.10;54.86;97785.20;1778248;80;21360;-64
2021/06/10 15:15:50;;;;;;;3.15;2.00;;;;;;;24.47;53.92;97785.73;1778027;80;21020;-62
2021/06/10 15:18:18;;;;;;;4.25;2.30;;;;;;;24.76;52.39;97789.38;1778278;80;20867;-68
2021/06/10 15:20:46;;;;;;;4.33;2.25;;;;;;;24.68;52.38;97776.05;1778203;80;21417;-65
2021/06/10 15:23:14;;;;;;;3.50;2.33;;;;;;;24.56;51.31;97773.66;1777870;80;20892;-63
2021/06/10 15:25:41;;;;;;;3.87;2.30;;;;;;;24.43;51.68;97782.22;1778032;80;20908;-63
2021/06/10 15:28:08;;;;;;;8.55;2.45;;;;;;;24.41;51.82;97784.56;1777916;80;21074;-64
2021/06/10 15:30:35;;;;;;;3.45;2.17;;;;;;;24.48;51.83;97772.27;1777931;80;20893;-63
2021/06/10 15:33:04;;;;;;;4.30;2.00;;;;;;;24.53;49.56;97777.16;1778016;80;21368;-67
2021/06/10 15:35:31;;;;;;;6.47;2.10;;;;;;;24.42;49.83;97780.63;1778177;80;20924;-62
2021/06/10 15:37:58;;;;;;;3.58;1.62;;;;;;;24.19;47.68;97777.42;1778462;80;20904;-64
2021/06/10 15:40:26;;;;;;;2.10;1.90;;;;;;;23.89;48.00;97775.48;1778208;80;22294;-67
2021/06/10 17:44:05;;;;;;;3.60;2.15;;;;;;;18.98;60.31;97808.22;1871423;76;23879;-67
2021/06/10 17:46:32;;;;;;;3.52;2.50;;;;;;;18.87;60.25;97823.41;1827919;78;20844;-65
2021/06/10 17:48:59;;;;;;;3.10;2.10;;;;;;;18.83;60.82;97822.54;1828035;78;21146;-67
2021/06/10 17:51:26;;;;;;;2.90;2.17;;;;;;;18.80;61.33;97826.73;1828936;78;21026;-63
2021/06/10 17:53:53;;;;;;;4.87;2.12;;;;;;;18.77;61.46;97825.30;1791791;80;20895;-66
2021/06/10 17:56:20;;;;;;;4.10;2.50;;;;;;;18.75;61.46;97828.34;1791445;80;20931;-64
2021/06/10 17:58:47;;;;;;;3.08;2.20;;;;;;;18.72;62.04;97822.27;1791539;80;20931;-65
2021/06/10 18:01:14;;;;;;;2.92;2.10;;;;;;;18.71;62.72;97818.53;1791482;80;21516;-65
2021/06/10 18:03:42;;;;;;;5.85;2.42;;;;;;;18.70;62.33;97827.23;1791605;80;21323;-62
2021/06/10 18:06:09;;;;;;;3.37;2.12;;;;;;;18.70;62.33;97822.39;1791378;80;20902;-66
